Time;durP1;ratioP1;P1;durP2;ratioP2;P2;SDS_P1;SDS_P2;PMS_P1;PMS_P2;Temp;Humidity;BMP_temperature;BMP_pressure;BME280_temperature;BME280_humidity;BME280_pressure;Samples;Min_cycle;Max_cycle;Signal;HPM_P1;HPM_P2
2022/10/05 00:01:28;;;;;;;10.02;7.22;;;15.50;99.90;;;;;;5053155;28;20081;-74
2022/10/05 00:04:15;;;;;;;14.73;8.23;;;15.50;99.90;;;;;;5054019;28;20041;-74
2022/10/05 00:06:49;;;;;;;9.27;6.78;;;15.50;99.90;;;;;;5052340;28;20538;-74
2022/10/05 00:09:20;;;;;;;10.07;7.20;;;15.40;99.90;;;;;;5035688;28;20121;-74
2022/10/05 00:11:46;;;;;;;11.80;6.90;;;15.30;99.90;;;;;;5016376;28;20495;-74
2022/10/05 00:14:26;;;;;;;10.38;7.10;;;15.40;99.90;;;;;;5032367;28;20049;-74
2022/10/05 00:16:53;;;;;;;10.45;6.38;;;;;;;;;;5038685;28;20541;-73
2022/10/05 00:19:28;;;;;;;10.45;7.25;;;15.40;99.90;;;;;;5052636;28;20522;-74
2022/10/05 00:22:29;;;;;;;9.75;6.80;;;15.40;99.90;;;;;;5052630;28;20045;-74
2022/10/05 00:24:57;;;;;;;15.10;7.63;;;15.50;99.90;;;;;;5047966;28;20060;-74
2022/10/05 00:27:36;;;;;;;11.52;6.40;;;15.30;99.90;;;;;;5052069;28;20518;-74
2022/10/05 00:30:17;;;;;;;15.13;6.93;;;15.40;99.90;;;;;;5053964;28;20449;-73
2022/10/05 00:32:44;;;;;;;11.20;7.63;;;15.80;99.90;;;;;;5053567;28;20080;-73
2022/10/05 00:35:10;;;;;;;9.80;7.43;;;15.30;99.90;;;;;;5052227;28;20116;-73
2022/10/05 00:37:36;;;;;;;11.32;7.78;;;15.50;99.90;;;;;;5042231;28;20049;-74
2022/10/05 00:40:12;;;;;;;9.65;5.97;;;15.30;99.90;;;;;;5034076;28;20029;-74
2022/10/05 00:43:00;;;;;;;9.57;7.10;;;15.30;99.90;;;;;;5032703;28;20033;-74
2022/10/05 00:45:33;;;;;;;11.40;6.65;;;15.60;99.90;;;;;;5033743;28;20041;-74
2022/10/05 00:48:21;;;;;;;11.68;6.18;;;15.30;99.90;;;;;;5048062;28;20090;-74
2022/10/05 00:51:06;;;;;;;10.23;6.97;;;15.40;99.90;;;;;;5052270;28;20564;-74
2022/10/05 00:53:57;;;;;;;10.35;6.45;;;15.30;99.90;;;;;;5051885;28;20453;-74
2022/10/05 00:56:47;;;;;;;12.68;7.32;;;15.20;99.90;;;;;;5034042;28;20398;-74
2022/10/05 00:59:28;;;;;;;11.13;5.97;;;15.40;99.90;;;;;;5053148;28;20396;-74
2022/10/05 01:01:54;;;;;;;12.55;6.32;;;;;;;;;;5051870;28;20045;-74
2022/10/05 01:04:24;;;;;;;8.13;6.80;;;15.10;99.90;;;;;;5034973;28;20045;-74
2022/10/05 01:06:58;;;;;;;7.18;5.50;;;15.40;99.90;;;;;;5043024;28;20038;-74
2022/10/05 01:09:52;;;;;;;7.93;5.65;;;15.10;99.90;;;;;;5032078;28;20391;-74
2022/10/05 01:12:32;;;;;;;8.68;5.82;;;15.40;99.90;;;;;;5033047;28;20037;-73
2022/10/05 01:15:14;;;;;;;7.25;5.82;;;15.30;99.90;;;;;;5031879;28;20049;-74
2022/10/05 01:17:59;;;;;;;12.10;5.82;;;15.30;99.90;;;;;;5049387;28;20040;-74
2022/10/05 01:20:36;;;;;;;9.15;5.30;;;15.30;99.90;;;;;;5061374;28;20045;-74
2022/10/05 01:23:20;;;;;;;7.78;5.47;;;15.30;99.90;;;;;;5058982;28;20120;-74
2022/10/05 01:25:53;;;;;;;8.27;5.75;;;15.30;99.90;;;;;;5057396;28;20068;-73
2022/10/05 01:28:27;;;;;;;9.70;5.38;;;15.30;99.90;;;;;;5051252;28;20131;-74
2022/10/05 01:31:22;;;;;;;10.07;5.55;;;15.20;99.90;;;;;;5034680;28;20048;-73
2022/10/05 01:34:11;;;;;;;10.05;5.68;;;15.20;99.90;;;;;;5022106;28;20048;-74
2022/10/05 01:36:49;;;;;;;16.25;5.68;;;15.10;99.90;;;;;;5043728;28;20041;-74
2022/10/05 01:39:18;;;;;;;11.52;5.57;;;15.20;99.90;;;;;;5032435;28;20415;-74
2022/10/05 01:42:18;;;;;;;9.43;5.30;;;15.30;99.90;;;;;;5032382;28;20503;-73
2022/10/05 01:45:18;;;;;;;10.00;6.03;;;15.30;99.90;;;;;;4961839;28;20506;-74
2022/10/05 01:47:49;;;;;;;7.47;5.25;;;15.00;99.90;;;;;;5048525;28;20054;-74
2022/10/05 01:50:30;;;;;;;9.90;6.55;;;15.20;99.90;;;;;;5044673;28;20033;-74
2022/10/05 01:53:10;;;;;;;11.90;6.70;;;15.10;99.90;;;;;;5068080;22;20040;-72
2022/10/05 01:55:54;;;;;;;13.10;6.90;;;15.10;99.90;;;;;;5071491;28;20094;-72
2022/10/05 01:58:41;;;;;;;10.88;5.53;;;15.20;99.90;;;;;;5072095;28;20040;-72
2022/10/05 02:01:17;;;;;;;9.57;6.90;;;15.10;99.90;;;;;;5088001;28;20040;-72
2022/10/05 02:03:48;;;;;;;11.10;7.70;;;15.00;99.90;;;;;;5072080;28;20040;-73
2022/10/05 02:06:21;;;;;;;9.63;7.38;;;15.20;99.90;;;;;;5069968;28;20556;-72
2022/10/05 02:09:07;;;;;;;9.73;6.80;;;15.10;99.90;;;;;;5070996;28;20437;-72
2022/10/05 02:11:34;;;;;;;10.05;6.47;;;15.10;99.90;;;;;;5070911;28;20456;-72
2022/10/05 02:14:16;;;;;;;10.23;7.15;;;15.20;99.90;;;;;;5070190;28;20048;-71
2022/10/05 02:16:45;;;;;;;15.05;8.52;;;15.10;99.90;;;;;;5063204;28;20037;-72
2022/10/05 02:19:31;;;;;;;12.82;7.70;;;15.10;99.90;;;;;;5050579;28;20051;-72
2022/10/05 02:22:07;;;;;;;11.20;6.95;;;15.20;99.90;;;;;;5051894;28;20629;-72
2022/10/05 02:24:41;;;;;;;8.93;6.80;;;15.30;99.90;;;;;;5049879;28;20518;-72
2022/10/05 02:27:09;;;;;;;9.55;7.10;;;15.20;99.90;;;;;;5061524;28;20040;-72
2022/10/05 02:29:38;;;;;;;9.57;7.03;;;15.20;99.90;;;;;;5070407;28;20094;-72
2022/10/05 02:32:13;;;;;;;10.48;6.47;;;15.20;99.90;;;;;;5069873;28;20094;-72
2022/10/05 02:34:41;;;;;;;9.90;6.93;;;15.20;99.90;;;;;;5071677;28;20119;-73
2022/10/05 02:37:20;;;;;;;8.63;6.65;;;15.20;99.90;;;;;;5060356;28;20116;-72
2022/10/05 02:40:08;;;;;;;11.50;6.72;;;15.20;99.90;;;;;;5050434;28;20124;-72
2022/10/05 02:43:03;;;;;;;12.27;6.72;;;15.30;99.90;;;;;;5050322;28;20037;-73
2022/10/05 02:45:38;;;;;;;11.23;6.95;;;15.20;99.90;;;;;;5020408;28;20084;-72
2022/10/05 02:48:22;;;;;;;9.45;6.45;;;15.30;99.90;;;;;;5050639;28;20072;-72
2022/10/05 02:50:52;;;;;;;;;;;15.30;99.90;;;;;;5070393;28;20041;-73
2022/10/05 02:53:29;;;;;;;8.52;6.38;;;15.30;99.90;;;;;;5071248;28;19939;-72
2022/10/05 02:56:13;;;;;;;11.07;6.40;;;15.40;99.90;;;;;;5052379;28;20076;-72
2022/10/05 02:58:52;;;;;;;9.80;6.47;;;15.10;99.90;;;;;;5050120;28;20131;-72
2022/10/05 03:01:33;;;;;;;12.48;6.45;;;15.20;99.90;;;;;;5033678;28;20045;-72
2022/10/05 03:04:27;;;;;;;12.23;6.80;;;15.20;99.90;;;;;;5049706;28;20045;-72
2022/10/05 03:07:07;;;;;;;8.65;7.07;;;15.30;99.90;;;;;;5058903;28;20473;-72
2022/10/05 03:09:44;;;;;;;11.63;6.10;;;15.30;99.90;;;;;;5053264;28;20042;-72
2022/10/05 03:12:38;;;;;;;14.23;5.88;;;15.20;99.90;;;;;;5053684;28;20128;-71
2022/10/05 03:15:26;;;;;;;12.07;5.55;;;15.20;99.90;;;;;;5041251;28;20068;-72
2022/10/05 03:18:07;;;;;;;10.88;5.65;;;15.20;99.90;;;;;;5036541;28;20041;-72
2022/10/05 03:20:58;;;;;;;8.65;5.50;;;15.20;99.90;;;;;;5050233;28;20072;-72
2022/10/05 03:23:45;;;;;;;8.65;5.40;;;15.00;99.90;;;;;;5051197;28;20052;-72
2022/10/05 03:26:23;;;;;;;9.13;5.75;;;15.10;99.90;;;;;;5063957;28;20590;-72
2022/10/05 03:29:47;;;;;;;8.48;5.05;;;15.20;99.90;;;;;;5069437;28;20040;-72
2022/10/05 03:32:43;;;;;;;10.25;5.80;;;15.20;99.90;;;;;;4980832;28;20401;-72
2022/10/05 03:35:31;;;;;;;13.00;5.30;;;15.20;99.90;;;;;;5063293;28;20041;-73
2022/10/05 03:38:22;;;;;;;7.75;5.20;;;15.10;99.90;;;;;;5049961;28;20041;-73
2022/10/05 03:41:07;;;;;;;8.25;5.57;;;15.10;99.90;;;;;;5033460;28;20483;-72
2022/10/05 03:43:50;;;;;;;9.57;5.30;;;15.20;99.90;;;;;;5034378;28;20052;-72
2022/10/05 03:46:25;;;;;;;;;;;15.30;99.90;;;;;;5069632;28;20036;-72
2022/10/05 03:49:15;;;;;;;6.38;4.70;;;15.10;99.90;;;;;;5073232;28;20406;-72
2022/10/05 03:52:03;;;;;;;8.93;6.13;;;15.30;99.90;;;;;;5073376;28;20041;-72
2022/10/05 03:54:35;;;;;;;8.82;4.75;;;15.10;99.90;;;;;;5073114;28;20076;-72
2022/10/05 03:57:08;;;;;;;6.85;4.95;;;15.10;99.90;;;;;;5068129;28;20045;-72
2022/10/05 03:59:40;;;;;;;;;;;15.00;99.90;;;;;;5053726;28;20135;-72
2022/10/05 04:02:23;;;;;;;6.38;4.90;;;15.00;99.90;;;;;;5054645;28;19916;-72
2022/10/05 04:04:55;;;;;;;7.40;4.87;;;15.20;99.90;;;;;;5052827;28;20037;-72
2022/10/05 04:07:31;;;;;;;8.77;5.17;;;15.10;99.90;;;;;;5053114;28;20037;-72
2022/10/05 04:09:59;;;;;;;9.77;5.57;;;15.10;99.90;;;;;;5054146;28;20267;-72
2022/10/05 04:12:31;;;;;;;9.40;5.10;;;15.10;99.90;;;;;;5070156;28;20048;-72
2022/10/05 04:15:05;;;;;;;10.73;5.93;;;17.20;99.90;;;;;;5072956;28;20048;-73
2022/10/05 04:17:38;;;;;;;8.93;4.88;;;15.00;99.90;;;;;;5073047;28;20044;-73
2022/10/05 04:20:04;;;;;;;8.90;5.00;;;;;;;;;;5059241;28;20082;-72
2022/10/05 04:22:57;;;;;;;6.95;5.68;;;15.10;99.90;;;;;;5035751;28;20135;-72
2022/10/05 04:25:40;;;;;;;10.75;4.95;;;15.00;99.90;;;;;;5052773;28;20114;-72
2022/10/05 04:28:21;;;;;;;8.32;4.97;;;15.00;99.90;;;;;;5065278;28;20139;-72
2022/10/05 04:30:50;;;;;;;6.85;4.78;;;15.00;99.90;;;;;;5072315;28;20119;-72
2022/10/05 04:33:16;;;;;;;5.32;4.43;;;14.90;99.90;;;;;;5053936;28;20037;-72
2022/10/05 04:36:09;;;;;;;7.60;4.70;;;15.10;99.90;;;;;;5052235;28;20056;-72
2022/10/05 04:38:56;;;;;;;8.40;5.20;;;14.90;99.90;;;;;;5052432;28;20505;-72
2022/10/05 04:41:33;;;;;;;8.85;5.15;;;15.10;99.90;;;;;;5052381;28;20039;-72
2022/10/05 04:44:01;;;;;;;10.57;5.93;;;15.00;99.90;;;;;;5059566;28;20036;-72
2022/10/05 04:46:46;;;;;;;8.82;5.35;;;15.00;99.90;;;;;;5072336;28;20040;-72
2022/10/05 04:49:42;;;;;;;7.07;5.43;;;15.00;99.90;;;;;;5072432;28;20040;-72
2022/10/05 04:52:36;;;;;;;8.35;5.40;;;15.10;99.90;;;;;;5072235;28;20086;-73
2022/10/05 04:55:26;;;;;;;11.45;6.57;;;14.90;99.90;;;;;;5072680;28;20066;-73
2022/10/05 04:58:07;;;;;;;8.57;5.93;;;15.00;99.90;;;;;;5073265;28;20040;-72
2022/10/05 05:00:58;;;;;;;9.60;6.07;;;15.10;99.90;;;;;;5065122;28;20044;-72
2022/10/05 05:03:45;;;;;;;12.10;6.55;;;14.80;99.90;;;;;;5051896;28;20583;-72
2022/10/05 05:06:24;;;;;;;8.77;6.18;;;15.00;99.90;;;;;;5051697;28;20041;-72
2022/10/05 05:09:16;;;;;;;9.63;6.35;;;15.00;99.90;;;;;;5053409;28;20033;-72
2022/10/05 05:12:06;;;;;;;10.27;6.63;;;15.00;99.90;;;;;;5051944;28;20049;-72
2022/10/05 05:15:14;;;;;;;11.07;6.70;;;15.00;99.90;;;;;;5051393;28;20044;-72
2022/10/05 05:17:54;;;;;;;13.52;7.13;;;14.90;99.90;;;;;;5042405;28;20048;-73
2022/10/05 05:20:39;;;;;;;11.52;6.97;;;15.00;99.90;;;;;;5051884;28;20126;-72
2022/10/05 05:23:18;;;;;;;11.82;6.93;;;15.00;99.90;;;;;;5052945;28;20041;-73
2022/10/05 05:26:15;;;;;;;11.20;7.65;;;14.90;99.90;;;;;;5051296;28;20044;-72
2022/10/05 05:28:57;;;;;;;9.93;7.03;;;14.90;99.90;;;;;;5052875;28;20052;-72
2022/10/05 05:31:47;;;;;;;11.70;7.35;;;15.10;99.90;;;;;;5069727;28;20036;-73
2022/10/05 05:34:21;;;;;;;10.68;7.45;;;14.80;99.90;;;;;;5064839;28;20098;-70
2022/10/05 05:36:47;;;;;;;12.57;6.93;;;;;;;;;;5069910;28;20043;-72
2022/10/05 05:39:40;;;;;;;9.63;6.35;;;14.80;99.90;;;;;;5065541;28;20040;-72
2022/10/05 05:42:26;;;;;;;15.55;7.07;;;15.10;99.90;;;;;;5071040;28;20505;-67
2022/10/05 05:44:56;;;;;;;10.38;6.60;;;14.90;99.90;;;;;;5070489;28;20040;-69
2022/10/05 05:47:34;;;;;;;11.30;7.13;;;14.90;99.90;;;;;;5072532;28;20394;-70
2022/10/05 05:50:09;;;;;;;12.32;7.20;;;14.90;99.90;;;;;;5063806;28;20301;-70
2022/10/05 05:52:43;;;;;;;10.43;5.88;;;14.90;99.90;;;;;;5050937;28;20037;-70
2022/10/05 05:55:19;;;;;;;11.50;6.30;;;14.80;99.90;;;;;;5052088;28;20037;-70
2022/10/05 05:57:57;;;;;;;9.50;6.00;;;15.00;99.90;;;;;;5050466;28;20116;-68
2022/10/05 06:00:30;;;;;;;11.98;7.20;;;14.90;99.90;;;;;;5046948;28;20044;-72
2022/10/05 06:03:13;;;;;;;9.68;6.00;;;15.00;99.90;;;;;;5057571;28;20041;-71
2022/10/05 06:05:53;;;;;;;12.68;6.95;;;15.00;99.90;;;;;;5065586;28;20545;-71
2022/10/05 06:08:55;;;;;;;11.60;6.70;;;14.90;99.90;;;;;;5057459;28;20072;-69
2022/10/05 06:11:25;;;;;;;8.75;6.30;;;15.00;99.90;;;;;;5028127;28;20065;-72
2022/10/05 06:13:53;;;;;;;9.55;5.90;;;15.10;99.90;;;;;;5055198;28;20414;-71
2022/10/05 06:16:40;;;;;;;11.70;6.78;;;15.00;99.90;;;;;;5064183;28;20550;-71
2022/10/05 06:19:19;;;;;;;10.77;6.65;;;15.10;99.90;;;;;;5061789;28;20044;-71
2022/10/05 06:21:55;;;;;;;13.77;6.13;;;14.90;99.90;;;;;;5067189;28;20512;-71
2022/10/05 06:24:39;;;;;;;14.18;6.00;;;15.00;99.90;;;;;;5061973;28;20447;-71
2022/10/05 06:27:22;;;;;;;11.30;5.90;;;15.00;99.90;;;;;;5061576;28;20033;-71
2022/10/05 06:29:48;;;;;;;;;;;15.60;99.90;;;;;;5069803;28;20064;-71
2022/10/05 06:32:22;;;;;;;9.07;6.25;;;14.90;99.90;;;;;;5059489;28;19952;-71
2022/10/05 06:35:25;;;;;;;7.63;5.03;;;15.00;99.90;;;;;;5050146;28;20048;-71
2022/10/05 06:38:27;;;;;;;7.35;5.43;;;14.90;99.90;;;;;;5070322;28;20032;-72
2022/10/05 06:40:59;;;;;;;8.43;5.50;;;14.90;99.90;;;;;;5071011;28;20040;-71
2022/10/05 06:43:33;;;;;;;7.35;5.45;;;15.00;99.90;;;;;;5071287;28;20045;-71
2022/10/05 06:46:19;;;;;;;9.07;6.35;;;15.20;99.90;;;;;;5062058;28;20040;-71
2022/10/05 06:48:54;;;;;;;7.88;4.75;;;15.10;99.90;;;;;;5050452;28;20466;-72
2022/10/05 06:51:33;;;;;;;7.88;5.50;;;15.20;99.90;;;;;;5051697;28;20043;-71
2022/10/05 06:54:17;;;;;;;8.52;5.43;;;15.00;99.90;;;;;;5038564;28;20098;-72
2022/10/05 06:56:59;;;;;;;7.65;5.25;;;15.20;99.90;;;;;;5067053;28;20063;-72
2022/10/05 06:59:35;;;;;;;7.82;5.18;;;15.10;99.90;;;;;;5050484;28;20041;-73
2022/10/05 07:02:15;;;;;;;9.00;5.55;;;15.00;99.90;;;;;;5051929;28;20036;-72
2022/10/05 07:05:12;;;;;;;7.90;5.50;;;15.10;99.90;;;;;;5049739;28;20056;-73
2022/10/05 07:07:52;;;;;;;7.82;5.57;;;15.00;99.90;;;;;;5051404;28;20406;-72
2022/10/05 07:10:30;;;;;;;8.98;5.22;;;15.10;99.90;;;;;;5050134;28;20044;-72
2022/10/05 07:13:48;;;;;;;7.65;4.68;;;15.20;99.90;;;;;;5050003;28;20037;-73
2022/10/05 07:16:38;;;;;;;8.48;5.03;;;15.20;99.90;;;;;;5063382;28;20455;-73
2022/10/05 07:19:32;;;;;;;11.23;5.35;;;15.20;99.90;;;;;;5073237;28;20032;-73
2022/10/05 07:22:13;;;;;;;8.93;5.05;;;15.20;99.90;;;;;;5071507;28;20094;-73
2022/10/05 07:24:51;;;;;;;6.20;4.15;;;15.10;99.90;;;;;;5068288;28;20039;-72
2022/10/05 07:27:26;;;;;;;6.80;4.43;;;15.30;99.90;;;;;;5068680;28;20032;-72
2022/10/05 07:30:06;;;;;;;7.43;3.88;;;15.20;99.90;;;;;;5072311;28;20033;-73
2022/10/05 07:32:32;;;;;;;5.05;4.10;;;;;;;;;;5070330;28;20063;-73
2022/10/05 07:35:08;;;;;;;7.15;3.97;;;15.40;99.90;;;;;;5071658;28;20051;-72
2022/10/05 07:37:56;;;;;;;6.85;4.43;;;15.50;99.90;;;;;;5073356;28;20124;-72
2022/10/05 07:40:40;;;;;;;8.02;4.25;;;15.20;99.90;;;;;;5054696;28;20037;-72
2022/10/05 07:43:28;;;;;;;5.88;3.58;;;15.40;99.90;;;;;;5054810;28;20055;-72
2022/10/05 07:46:06;;;;;;;4.15;3.63;;;15.20;99.90;;;;;;5054588;28;20048;-72
2022/10/05 07:48:55;;;;;;;4.97;3.30;;;15.50;99.90;;;;;;5053747;28;20407;-72
2022/10/05 07:51:39;;;;;;;7.32;3.47;;;15.40;99.90;;;;;;5053617;28;20090;-72
2022/10/05 07:54:16;;;;;;;4.70;3.60;;;15.50;99.90;;;;;;5110591;22;20539;-78
2022/10/05 07:56:47;;;;;;;6.05;3.42;;;15.50;99.90;;;;;;5065246;28;20050;-79
2022/10/05 07:59:29;;;;;;;4.72;3.05;;;15.50;99.90;;;;;;5085599;28;20040;-81
2022/10/05 08:02:08;;;;;;;4.65;3.35;;;15.40;99.90;;;;;;5083868;28;20032;-77
2022/10/05 08:04:43;;;;;;;7.05;3.45;;;15.60;99.90;;;;;;5045609;28;20120;-79
2022/10/05 08:07:14;;;;;;;6.35;3.70;;;15.60;99.90;;;;;;5083912;28;20469;-79
2022/10/05 08:10:03;;;;;;;6.45;3.45;;;15.70;99.90;;;;;;5086678;28;20036;-78
2022/10/05 08:12:56;;;;;;;4.20;3.00;;;15.80;99.90;;;;;;5090908;28;20047;-79
2022/10/05 08:15:31;;;;;;;6.35;3.63;;;15.70;99.90;;;;;;5071552;28;20033;-78
2022/10/05 08:18:45;;;;;;;6.18;3.75;;;15.80;99.90;;;;;;5072659;28;20033;-78
2022/10/05 08:21:15;;;;;;;6.23;3.83;;;15.90;99.90;;;;;;5060352;28;20045;-79
2022/10/05 08:23:41;;;;;;;13.10;4.60;;;;;;;;;;5059631;28;20049;-79
2022/10/05 08:26:07;;;;;;;7.90;4.45;;;;;;;;;;5078952;28;20041;-79
2022/10/05 08:28:59;;;;;;;7.60;4.10;;;15.90;99.90;;;;;;5093947;28;20054;-78
2022/10/05 08:31:32;;;;;;;9.10;4.43;;;16.00;99.90;;;;;;5087652;28;20083;-79
2022/10/05 08:34:10;;;;;;;8.40;4.60;;;16.20;99.90;;;;;;5082847;28;20048;-79
2022/10/05 08:37:02;;;;;;;9.30;4.78;;;16.10;99.90;;;;;;5077450;28;20116;-79
2022/10/05 08:39:46;;;;;;;9.82;5.05;;;16.10;99.90;;;;;;5068459;28;20033;-79
2022/10/05 08:42:21;;;;;;;10.40;4.70;;;16.10;99.90;;;;;;5068307;28;20053;-79
2022/10/05 08:45:24;;;;;;;9.95;4.50;;;16.10;99.90;;;;;;5067596;28;20041;-79
2022/10/05 08:48:24;;;;;;;7.03;4.00;;;16.30;99.90;;;;;;5078506;28;20096;-79
2022/10/05 08:50:55;;;;;;;12.23;3.72;;;16.20;99.90;;;;;;5066662;28;20085;-79
2022/10/05 08:53:51;;;;;;;5.25;3.47;;;16.40;99.90;;;;;;5076793;28;20059;-79
2022/10/05 08:56:24;;;;;;;5.90;2.70;;;16.30;99.90;;;;;;5075639;28;20064;-80
2022/10/05 08:59:33;;;;;;;4.20;2.42;;;16.40;99.90;;;;;;5088221;28;20041;-79
2022/10/05 09:02:38;;;;;;;5.72;1.88;;;16.60;99.90;;;;;;5061035;28;20048;-76
2022/10/05 09:05:17;;;;;;;5.32;2.10;;;16.70;99.90;;;;;;5043109;28;20044;-76
2022/10/05 09:07:43;;;;;;;4.20;1.80;;;16.60;99.90;;;;;;5053460;28;20041;-77
2022/10/05 09:10:47;;;;;;;5.55;2.08;;;16.60;99.90;;;;;;5050186;28;20189;-77
2022/10/05 09:13:32;;;;;;;4.65;2.10;;;16.70;99.90;;;;;;5074053;28;20053;-75
2022/10/05 09:16:20;;;;;;;10.18;3.25;;;16.60;99.90;;;;;;5054989;28;20040;-77
2022/10/05 09:19:14;;;;;;;10.20;3.72;;;16.80;99.90;;;;;;5072696;28;20040;-77
2022/10/05 09:21:55;;;;;;;3.47;2.83;;;16.80;99.90;;;;;;5063767;28;20078;-78
2022/10/05 09:24:21;;;;;;;8.20;3.30;;;16.70;99.90;;;;;;5056363;28;20100;-77
2022/10/05 09:27:35;;;;;;;6.00;3.47;;;16.80;99.90;;;;;;5073667;28;20061;-77
2022/10/05 09:30:36;;;;;;;6.85;3.22;;;16.90;99.90;;;;;;4978953;28;20084;-77
2022/10/05 09:33:27;;;;;;;6.50;3.47;;;16.90;99.90;;;;;;4970733;28;20039;-77
2022/10/05 09:36:50;;;;;;;4.15;3.33;;;16.80;99.90;;;;;;5052794;28;20049;-77
2022/10/05 09:39:16;;;;;;;8.02;3.50;;;;;;;;;;5058229;28;20415;-78
2022/10/05 09:41:54;;;;;;;6.50;3.55;;;16.90;99.90;;;;;;5066346;28;20037;-77
2022/10/05 09:44:50;;;;;;;6.57;3.92;;;16.80;99.90;;;;;;5044220;28;20037;-78
2022/10/05 09:47:40;;;;;;;7.75;3.95;;;17.10;99.90;;;;;;5070066;28;20094;-78
2022/10/05 09:50:44;;;;;;;7.50;2.88;;;17.10;99.90;;;;;;5057501;28;20616;-78
2022/10/05 09:53:33;;;;;;;7.05;3.17;;;17.10;99.90;;;;;;5054571;28;20119;-78
2022/10/05 09:56:10;;;;;;;6.20;3.13;;;17.20;99.90;;;;;;5075770;28;20033;-77
2022/10/05 09:59:17;;;;;;;7.15;2.83;;;17.30;99.90;;;;;;5073003;28;20041;-78
2022/10/05 10:02:04;;;;;;;7.68;2.45;;;17.20;99.90;;;;;;5051163;28;20040;-78
2022/10/05 10:05:04;;;;;;;6.15;2.80;;;17.20;99.90;;;;;;5051942;28;20068;-78
2022/10/05 10:07:45;;;;;;;3.08;2.10;;;17.00;99.90;;;;;;5051343;28;20132;-78
2022/10/05 10:10:19;;;;;;;4.50;2.22;;;17.10;99.90;;;;;;5052520;28;20041;-78
2022/10/05 10:13:23;;;;;;;2.65;2.03;;;17.10;99.90;;;;;;5052387;28;20048;-77
2022/10/05 10:16:14;;;;;;;5.22;1.77;;;17.00;99.90;;;;;;5034066;28;20045;-78
2022/10/05 10:19:11;;;;;;;4.13;2.13;;;16.90;99.90;;;;;;5063270;28;20072;-77
2022/10/05 10:22:07;;;;;;;5.28;2.53;;;16.90;99.90;;;;;;5087454;28;20045;-78
2022/10/05 10:25:09;;;;;;;3.65;2.08;;;16.70;99.90;;;;;;5087207;28;20427;-77
2022/10/05 10:28:04;;;;;;;4.60;2.35;;;16.80;99.90;;;;;;5072032;28;20394;-76
2022/10/05 10:31:00;;;;;;;6.68;2.65;;;16.80;99.90;;;;;;5054112;28;20516;-75
2022/10/05 10:33:50;;;;;;;4.22;2.28;;;16.60;99.90;;;;;;5070187;28;20375;-75
2022/10/05 10:36:38;;;;;;;3.45;2.38;;;16.80;99.90;;;;;;5069261;28;20099;-75
2022/10/05 10:39:37;;;;;;;7.25;2.40;;;16.60;99.90;;;;;;5067139;28;20041;-76
2022/10/05 10:42:09;;;;;;;3.08;2.45;;;16.90;99.90;;;;;;5066329;28;20067;-76
2022/10/05 10:45:03;;;;;;;5.40;2.40;;;16.70;99.90;;;;;;5041357;28;20041;-76
2022/10/05 10:47:35;;;;;;;7.68;2.95;;;17.00;99.90;;;;;;5068503;28;20037;-77
2022/10/05 10:50:09;;;;;;;3.42;2.30;;;16.90;99.90;;;;;;5063451;28;20385;-76
2022/10/05 10:52:47;;;;;;;2.33;2.00;;;16.70;99.90;;;;;;5079078;28;20040;-76
2022/10/05 10:56:14;;;;;;;3.63;2.67;;;16.70;99.90;;;;;;5082400;28;20406;-77
2022/10/05 10:59:13;;;;;;;3.60;2.40;;;16.70;99.90;;;;;;4989571;28;20054;-77
2022/10/05 11:01:45;;;;;;;5.93;2.67;;;16.80;99.90;;;;;;5060644;28;20052;-77
2022/10/05 11:04:32;;;;;;;3.45;2.30;;;16.80;99.90;;;;;;5041656;28;20085;-77
2022/10/05 11:07:44;;;;;;;5.95;2.53;;;16.70;99.90;;;;;;5069635;28;20462;-75
2022/10/05 11:10:24;;;;;;;3.83;2.22;;;16.90;99.90;;;;;;5067177;28;20048;-76
2022/10/05 11:12:50;;;;;;;4.70;1.98;;;16.80;99.90;;;;;;5059787;28;20403;-77
2022/10/05 11:15:21;;;;;;;2.20;2.00;;;16.80;99.90;;;;;;5057853;28;20051;-78
2022/10/05 11:18:14;;;;;;;4.53;2.03;;;16.60;99.90;;;;;;5059922;28;20565;-78
2022/10/05 11:21:08;;;;;;;2.17;1.70;;;16.80;99.90;;;;;;5064979;28;20053;-77
2022/10/05 11:23:42;;;;;;;;;;;16.70;99.90;;;;;;5063378;28;20115;-77
2022/10/05 11:26:27;;;;;;;4.80;2.10;;;16.70;99.90;;;;;;5051314;28;20302;-76
2022/10/05 11:29:26;;;;;;;6.63;1.92;;;16.70;99.90;;;;;;5080312;28;20038;-78
2022/10/05 11:32:15;;;;;;;3.97;1.88;;;16.70;99.90;;;;;;5051181;28;20124;-77
2022/10/05 11:34:59;;;;;;;4.88;1.92;;;16.50;99.90;;;;;;5070604;28;20045;-77
2022/10/05 11:38:02;;;;;;;2.38;1.75;;;16.60;99.90;;;;;;5055341;28;20094;-77
2022/10/05 11:40:55;;;;;;;6.97;2.28;;;16.50;99.90;;;;;;5038139;28;20079;-77
2022/10/05 11:43:33;;;;;;;5.30;1.90;;;16.60;99.90;;;;;;5066560;28;20048;-77
2022/10/05 11:46:36;;;;;;;4.25;1.77;;;16.60;99.90;;;;;;5062778;28;20435;-77
2022/10/05 11:49:11;;;;;;;3.28;2.15;;;16.60;99.90;;;;;;5052931;28;20043;-78
2022/10/05 11:51:47;;;;;;;5.50;2.55;;;16.60;99.90;;;;;;5064168;28;20032;-77
2022/10/05 11:54:26;;;;;;;3.15;1.85;;;16.70;99.90;;;;;;5067706;28;20131;-74
2022/10/05 11:57:39;;;;;;;4.82;2.20;;;16.80;99.90;;;;;;5057382;28;20054;-77
2022/10/05 12:00:14;;;;;;;3.60;2.05;;;16.50;99.90;;;;;;5071418;28;20118;-75
2022/10/05 12:02:58;;;;;;;4.93;2.10;;;16.60;99.90;;;;;;5054596;28;20514;-76
2022/10/05 12:05:38;;;;;;;4.43;2.00;;;16.60;99.90;;;;;;5071084;28;20549;-78
2022/10/05 12:08:21;;;;;;;4.43;2.08;;;16.60;99.90;;;;;;5090125;28;20036;-78
2022/10/05 12:10:47;;;;;;;2.95;1.75;;;;;;;;;;5074146;28;20036;-78
2022/10/05 12:13:36;;;;;;;4.30;1.90;;;16.60;99.90;;;;;;5071034;28;20056;-78
2022/10/05 12:16:05;;;;;;;2.70;1.48;;;16.60;99.90;;;;;;5055058;28;20483;-77
2022/10/05 12:18:31;;;;;;;4.43;2.30;;;16.60;99.90;;;;;;5051770;28;20037;-78
2022/10/05 12:20:59;;;;;;;4.88;1.90;;;16.80;99.90;;;;;;5074150;28;20107;-78
2022/10/05 12:23:26;;;;;;;2.85;1.85;;;;;;;;;;5068591;28;20041;-77
2022/10/05 12:25:55;;;;;;;4.25;2.28;;;16.50;99.90;;;;;;5064044;28;20059;-77
2022/10/05 12:28:31;;;;;;;3.83;2.30;;;16.60;99.90;;;;;;5071416;28;20032;-78
2022/10/05 12:31:06;;;;;;;3.50;2.22;;;16.60;99.90;;;;;;5072301;28;20037;-78
2022/10/05 12:34:13;;;;;;;2.92;2.42;;;16.70;99.90;;;;;;5072011;28;20529;-79
2022/10/05 12:36:45;;;;;;;4.72;2.40;;;16.70;99.90;;;;;;5089599;28;20041;-78
2022/10/05 12:39:41;;;;;;;4.57;2.20;;;16.60;99.90;;;;;;5063588;28;20036;-79
2022/10/05 12:42:35;;;;;;;5.20;2.72;;;16.60;99.90;;;;;;5073217;28;20094;-79
2022/10/05 12:45:13;;;;;;;2.67;2.35;;;16.60;99.90;;;;;;5076579;28;20068;-79
2022/10/05 12:48:03;;;;;;;3.35;2.60;;;16.60;99.90;;;;;;5065763;28;20102;-79
2022/10/05 12:50:53;;;;;;;6.43;2.60;;;16.80;99.90;;;;;;5089821;28;20653;-79
2022/10/05 12:53:44;;;;;;;5.47;2.58;;;16.70;99.90;;;;;;5058556;28;20036;-79
2022/10/05 12:56:22;;;;;;;3.72;2.60;;;16.90;99.90;;;;;;5041157;28;20553;-79
2022/10/05 12:58:56;;;;;;;3.55;2.60;;;16.80;99.90;;;;;;5073495;28;20121;-79
2022/10/05 13:01:40;;;;;;;4.07;2.58;;;16.80;99.90;;;;;;5072999;28;20037;-80
2022/10/05 13:04:05;;;;;;;4.80;2.65;;;16.90;99.90;;;;;;5040249;28;20430;-79
2022/10/05 13:06:43;;;;;;;5.80;2.67;;;17.00;99.90;;;;;;5042180;28;20094;-79
2022/10/05 13:09:19;;;;;;;4.28;2.95;;;16.70;99.90;;;;;;5056998;28;20047;-80
2022/10/05 13:11:49;;;;;;;2.85;2.33;;;16.90;99.90;;;;;;5055749;28;20029;-79
2022/10/05 13:14:21;;;;;;;6.30;3.17;;;16.90;99.90;;;;;;5036237;28;20041;-78
2022/10/05 13:17:18;;;;;;;4.60;2.47;;;17.00;99.90;;;;;;5057595;28;20037;-79
2022/10/05 13:19:54;;;;;;;7.22;3.15;;;17.20;99.90;;;;;;5049192;28;20080;-79
2022/10/05 13:22:30;;;;;;;3.42;2.47;;;17.00;99.90;;;;;;5059652;28;20043;-79
2022/10/05 13:25:07;;;;;;;4.68;2.97;;;17.20;99.90;;;;;;5074159;28;20041;-79
2022/10/05 13:27:43;;;;;;;6.32;3.72;;;17.10;99.90;;;;;;5073862;28;20041;-80
2022/10/05 13:30:18;;;;;;;5.72;3.25;;;17.10;99.90;;;;;;5073707;28;20062;-79
2022/10/05 13:33:05;;;;;;;4.18;3.10;;;17.20;99.90;;;;;;5057357;28;20033;-79
2022/10/05 13:35:43;;;;;;;6.43;2.90;;;17.20;99.90;;;;;;5075215;28;20040;-80
2022/10/05 13:38:28;;;;;;;5.70;3.63;;;17.20;99.90;;;;;;5100458;28;20174;-80
2022/10/05 13:40:53;;;;;;;6.68;3.17;;;17.20;99.90;;;;;;5083829;28;20037;-79
2022/10/05 13:43:27;;;;;;;3.78;2.78;;;17.40;99.90;;;;;;5059088;28;20056;-80
2022/10/05 13:46:20;;;;;;;6.07;2.97;;;17.30;99.90;;;;;;5080680;28;20537;-80
2022/10/05 13:48:54;;;;;;;4.45;3.28;;;17.40;99.90;;;;;;5082059;28;20036;-80
2022/10/05 13:51:33;;;;;;;4.80;2.97;;;17.50;99.90;;;;;;5076928;28;20045;-79
2022/10/05 13:54:09;;;;;;;6.68;3.05;;;17.30;99.90;;;;;;5090510;22;20069;-70
2022/10/05 13:56:57;;;;;;;4.53;2.78;;;17.30;99.90;;;;;;5033920;28;20499;-71
2022/10/05 13:59:31;;;;;;;4.72;3.20;;;17.30;99.90;;;;;;5050606;28;20461;-71
2022/10/05 14:02:07;;;;;;;3.85;2.65;;;17.60;99.90;;;;;;5052299;28;20044;-71
2022/10/05 14:04:49;;;;;;;4.88;3.28;;;17.30;99.90;;;;;;5062860;28;20094;-71
2022/10/05 14:07:35;;;;;;;5.03;3.03;;;17.30;99.90;;;;;;5058813;28;20040;-71